createdAt,value
2023-02-11T00:02:08.273Z,4.04
2023-02-11T00:04:38.147Z,4.05
2023-02-11T00:07:07.326Z,4.04
2023-02-11T00:09:38.775Z,4.01
2023-02-11T00:12:08.171Z,4.04
2023-02-11T00:14:39.154Z,4.06
2023-02-11T00:17:08.336Z,4.10
2023-02-11T00:19:37.676Z,4.05
2023-02-11T00:22:06.863Z,4.06
2023-02-11T00:24:38.232Z,4.07
2023-02-11T00:27:07.436Z,4.06
2023-02-11T00:29:37.769Z,4.07
2023-02-11T00:32:09.082Z,4.08
2023-02-11T00:34:39.233Z,4.07
2023-02-11T00:37:08.467Z,4.10
2023-02-11T00:39:39.291Z,4.14
2023-02-11T00:42:08.413Z,4.10
2023-02-11T00:44:37.842Z,4.10
2023-02-11T00:47:07.214Z,4.09
2023-02-11T00:49:37.046Z,4.09
2023-02-11T00:52:06.388Z,4.12
2023-02-11T00:54:38.507Z,4.12
2023-02-11T00:57:09.493Z,4.14
2023-02-11T00:59:39.116Z,4.14
2023-02-11T01:02:08.254Z,4.14
2023-02-11T01:04:37.763Z,4.12
2023-02-11T01:07:07.913Z,4.11
2023-02-11T01:09:41.881Z,4.13
2023-02-11T01:12:11.357Z,4.15
2023-02-11T01:14:43.410Z,4.12
2023-02-11T01:17:13.631Z,4.13
2023-02-11T01:19:44.095Z,4.15
2023-02-11T01:22:13.285Z,4.14
2023-02-11T01:24:43.985Z,4.15
2023-02-11T01:27:13.259Z,4.17
2023-02-11T01:29:42.799Z,4.13
2023-02-11T01:32:12.122Z,4.14
2023-02-11T01:34:41.432Z,4.15
2023-02-11T01:37:11.081Z,4.13
2023-02-11T01:39:40.426Z,4.15
2023-02-11T01:42:15.284Z,4.14
2023-02-11T01:44:44.876Z,4.12
2023-02-11T01:47:13.993Z,4.10
2023-02-11T01:49:47.215Z,4.08
2023-02-11T01:52:22.243Z,4.09
2023-02-11T01:55:13.064Z,4.11
2023-02-11T01:57:49.482Z,4.09
2023-02-11T02:00:24.425Z,4.10
2023-02-11T02:02:59.987Z,4.07
2023-02-11T02:05:35.920Z,4.06
2023-02-11T02:08:10.929Z,4.03
2023-02-11T02:10:44.579Z,4.03
2023-02-11T02:13:15.841Z,4.00
2023-02-11T02:15:52.069Z,3.99
2023-02-11T02:18:35.161Z,3.97
2023-02-11T02:21:31.623Z,3.95
2023-02-11T02:24:33.685Z,3.94
2023-02-11T02:27:45.156Z,3.98
2023-02-11T02:30:51.049Z,3.94
2023-02-11T02:33:37.853Z,3.93
2023-02-11T02:36:19.483Z,3.93
2023-02-11T02:38:54.296Z,3.96
2023-02-11T02:41:28.448Z,3.93
2023-02-11T02:43:58.566Z,3.94
2023-02-11T02:46:30.826Z,3.97
2023-02-11T02:49:02.339Z,3.97
2023-02-11T02:52:05.172Z,3.97
2023-02-11T02:55:13.946Z,3.98
2023-02-11T02:58:05.228Z,3.98
2023-02-11T03:00:44.326Z,4.01
2023-02-11T03:03:24.999Z,3.95
2023-02-11T03:06:02.504Z,3.97
2023-02-11T03:08:38.203Z,4.02
2023-02-11T03:11:09.019Z,4.00
2023-02-11T03:13:40.887Z,3.97
2023-02-11T03:16:14.900Z,3.97
2023-02-11T03:18:50.583Z,4.01
2023-02-11T03:21:22.377Z,3.97
2023-02-11T03:23:55.208Z,3.99
2023-02-11T03:26:29.752Z,3.99
2023-02-11T03:29:06.497Z,4.00
2023-02-11T03:31:43.003Z,4.01
2023-02-11T03:34:16.757Z,4.02
2023-02-11T03:36:53.349Z,4.01
2023-02-11T03:39:26.956Z,4.00
2023-02-11T03:42:00.116Z,4.02
2023-02-11T03:44:36.133Z,4.02
2023-02-11T03:47:10.677Z,4.00
2023-02-11T03:49:41.616Z,4.02
2023-02-11T03:52:15.361Z,4.01
2023-02-11T03:54:47.059Z,4.03
2023-02-11T03:57:16.694Z,4.04
2023-02-11T03:59:53.804Z,4.02
2023-02-11T04:02:26.428Z,3.99
2023-02-11T04:04:55.679Z,3.95
2023-02-11T04:07:26.855Z,3.99
2023-02-11T04:09:56.157Z,3.98
2023-02-11T04:12:25.860Z,3.97
2023-02-11T04:14:54.940Z,3.97
2023-02-11T04:17:24.423Z,3.99
2023-02-11T04:19:53.616Z,3.95
2023-02-11T04:22:22.987Z,3.95
2023-02-11T04:24:53.970Z,3.99
2023-02-11T04:27:23.764Z,4.01
2023-02-11T04:29:52.921Z,4.01
2023-02-11T04:32:22.362Z,4.01
2023-02-11T04:34:51.976Z,4.00
2023-02-11T04:37:21.090Z,3.98
2023-02-11T04:39:50.247Z,4.00
2023-02-11T04:42:21.134Z,3.94
2023-02-11T04:44:50.327Z,3.93
2023-02-11T04:47:19.929Z,3.95
2023-02-11T04:49:49.394Z,3.96
2023-02-11T04:52:18.720Z,3.99
2023-02-11T04:54:48.087Z,3.97
2023-02-11T04:57:17.431Z,4.02
2023-02-11T04:59:49.077Z,4.03
2023-02-11T05:02:18.605Z,4.03
2023-02-11T05:04:47.744Z,4.07
2023-02-11T05:07:17.163Z,4.08
2023-02-11T05:09:46.408Z,4.08
2023-02-11T05:12:41.179Z,4.09
2023-02-11T05:15:12.054Z,4.10
2023-02-11T05:17:41.629Z,4.11
2023-02-11T05:20:11.936Z,4.12
2023-02-11T05:22:41.600Z,4.14
2023-02-11T05:25:10.994Z,4.13
2023-02-11T05:27:40.205Z,4.14
2023-02-11T05:30:12.215Z,4.13
2023-02-11T05:32:41.784Z,4.14
2023-02-11T05:35:10.808Z,4.14
2023-02-11T05:37:40.560Z,4.12
2023-02-11T05:40:11.122Z,4.13
2023-02-11T05:42:40.729Z,4.13
2023-02-11T05:45:11.787Z,4.15
2023-02-11T05:47:41.469Z,4.16
2023-02-11T05:50:11.052Z,4.16
2023-02-11T05:52:40.305Z,4.15
2023-02-11T05:55:09.823Z,4.16
2023-02-11T05:57:39.148Z,4.17
2023-02-11T06:00:10.195Z,4.15
2023-02-11T06:02:46.071Z,4.20
2023-02-11T06:05:15.338Z,4.23
2023-02-11T06:07:44.704Z,4.23
2023-02-11T06:10:13.920Z,4.25
2023-02-11T06:12:43.287Z,4.27
2023-02-11T06:15:12.424Z,4.29
2023-02-11T06:17:41.746Z,4.29
2023-02-11T06:20:13.071Z,4.29
2023-02-11T06:22:42.635Z,4.32
2023-02-11T06:25:12.196Z,4.36
2023-02-11T06:27:41.682Z,4.36
2023-02-11T06:30:12.095Z,4.38
2023-02-11T06:32:44.789Z,4.41
2023-02-11T06:35:16.428Z,4.43
2023-02-11T06:37:46.966Z,4.47
2023-02-11T06:40:16.668Z,4.48
2023-02-11T06:42:45.802Z,4.50
2023-02-11T06:45:15.134Z,4.53
2023-02-11T06:47:44.647Z,4.57
2023-02-11T06:50:15.974Z,4.56
2023-02-11T06:52:45.437Z,4.62
2023-02-11T06:55:14.531Z,4.61
2023-02-11T06:57:43.854Z,4.62
2023-02-11T07:00:14.588Z,4.67
2023-02-11T07:02:44.121Z,4.68
2023-02-11T07:05:14.870Z,4.71
2023-02-11T07:07:44.326Z,4.72
2023-02-11T07:10:13.468Z,4.74
2023-02-11T07:12:42.949Z,4.77
2023-02-11T07:15:12.250Z,4.80
2023-02-11T07:17:41.625Z,4.83
2023-02-11T07:20:12.522Z,4.85
2023-02-11T07:22:43.361Z,4.87
2023-02-11T07:25:12.637Z,4.87
2023-02-11T07:27:42.256Z,4.91
2023-02-11T07:30:13.209Z,4.92
2023-02-11T07:32:45.086Z,4.95
2023-02-11T07:35:14.845Z,4.93
2023-02-11T07:37:45.773Z,4.97
2023-02-11T07:40:15.960Z,4.98
2023-02-11T07:42:45.560Z,5.01
2023-02-11T07:45:14.590Z,5.02
2023-02-11T07:47:43.920Z,5.04
2023-02-11T07:50:13.516Z,5.04
2023-02-11T07:52:44.038Z,5.05
2023-02-11T07:55:13.128Z,5.06
2023-02-11T07:57:42.640Z,5.07
2023-02-11T08:00:13.043Z,5.10
2023-02-11T08:02:43.544Z,5.13
2023-02-11T08:05:12.741Z,5.16
2023-02-11T08:07:42.018Z,5.21
2023-02-11T08:10:13.144Z,5.23
2023-02-11T08:12:43.354Z,5.25
2023-02-11T08:15:13.672Z,5.29
2023-02-11T08:17:43.521Z,5.33
2023-02-11T08:20:13.114Z,5.39
2023-02-11T08:22:42.653Z,5.41
2023-02-11T08:25:13.100Z,5.45
2023-02-11T08:27:43.597Z,5.49
2023-02-11T08:30:14.214Z,5.51
2023-02-11T08:32:46.532Z,5.56
2023-02-11T08:35:15.513Z,5.62
2023-02-11T08:37:44.860Z,5.64
2023-02-11T08:40:15.701Z,5.64
2023-02-11T08:42:45.290Z,5.68
2023-02-11T08:45:14.523Z,5.74
2023-02-11T08:47:44.479Z,5.75
2023-02-11T08:50:13.725Z,5.77
2023-02-11T08:52:43.295Z,5.79
2023-02-11T08:55:15.133Z,5.81
2023-02-11T08:57:44.716Z,5.85
2023-02-11T09:00:15.085Z,5.88
2023-02-11T09:02:45.078Z,5.93
2023-02-11T09:05:14.552Z,5.95
2023-02-11T09:07:43.872Z,6.01
2023-02-11T09:10:14.477Z,6.03
2023-02-11T09:12:44.108Z,6.07
2023-02-11T09:15:15.634Z,6.11
2023-02-11T09:17:44.934Z,6.15
2023-02-11T09:20:14.067Z,6.20
2023-02-11T09:22:43.415Z,6.24
2023-02-11T09:25:14.592Z,6.29
2023-02-11T09:27:44.402Z,6.35
2023-02-11T09:30:15.374Z,6.42
2023-02-11T09:32:44.984Z,6.48
2023-02-11T09:35:14.068Z,6.57
2023-02-11T09:37:43.880Z,6.65
2023-02-11T09:40:15.599Z,6.71
2023-02-11T09:42:53.009Z,6.76
2023-02-11T09:45:25.759Z,6.84
2023-02-11T09:47:57.684Z,6.89
2023-02-11T09:50:31.467Z,6.96
2023-02-11T09:53:03.851Z,6.98
2023-02-11T09:55:39.454Z,7.02
2023-02-11T09:58:15.333Z,7.08
2023-02-11T10:00:49.973Z,7.10
2023-02-11T10:03:43.096Z,7.08
2023-02-11T10:06:33.911Z,7.07
2023-02-11T10:09:14.724Z,7.08
2023-02-11T10:11:53.696Z,7.14
2023-02-11T10:14:51.602Z,7.17
2023-02-11T10:17:27.790Z,7.24
2023-02-11T10:20:15.804Z,7.28
2023-02-11T10:22:50.491Z,7.33
2023-02-11T10:25:24.977Z,7.39
2023-02-11T10:27:59.199Z,7.44
2023-02-11T10:30:33.513Z,7.47
2023-02-11T10:33:08.266Z,7.50
2023-02-11T10:35:39.216Z,7.51
2023-02-11T10:38:09.720Z,7.50
2023-02-11T10:40:39.924Z,7.50
2023-02-11T10:43:14.783Z,7.53
2023-02-11T10:45:47.728Z,7.49
2023-02-11T10:48:43.117Z,7.48
2023-02-11T10:51:22.094Z,7.46
2023-02-11T10:54:13.833Z,7.46
2023-02-11T10:56:47.979Z,7.43
2023-02-11T10:59:28.121Z,7.43
2023-02-11T11:02:03.010Z,7.39
2023-02-11T11:04:40.748Z,7.36
2023-02-11T11:07:20.538Z,7.37
2023-02-11T11:09:53.619Z,7.39
2023-02-11T11:12:36.420Z,7.37
2023-02-11T11:15:19.972Z,7.37
2023-02-11T11:17:50.385Z,7.36
2023-02-11T11:20:27.363Z,7.37
2023-02-11T11:23:13.413Z,7.36
2023-02-11T11:25:46.053Z,7.37
2023-02-11T11:28:25.488Z,7.33
2023-02-11T11:30:58.811Z,7.32
2023-02-11T11:33:32.258Z,7.33
2023-02-11T11:36:05.789Z,7.32
2023-02-11T11:38:38.061Z,7.31
2023-02-11T11:41:24.127Z,7.31
2023-02-11T11:44:01.833Z,7.30
2023-02-11T11:46:35.185Z,7.29
2023-02-11T11:49:23.442Z,7.27
2023-02-11T11:52:03.721Z,7.30
2023-02-11T11:54:35.479Z,7.30
2023-02-11T11:57:17.550Z,7.27
2023-02-11T11:59:55.543Z,7.28
2023-02-11T12:02:47.089Z,7.32
2023-02-11T12:05:25.488Z,7.35
2023-02-11T12:08:05.102Z,7.32
2023-02-11T12:10:49.919Z,7.34
2023-02-11T12:13:36.013Z,7.37
2023-02-11T12:16:16.102Z,7.36
2023-02-11T12:19:18.588Z,7.37
2023-02-11T12:21:57.081Z,7.38
2023-02-11T12:24:42.428Z,7.42
2023-02-11T12:27:19.844Z,7.42
2023-02-11T12:30:02.719Z,7.43
2023-02-11T12:32:44.677Z,7.45
2023-02-11T12:35:34.554Z,7.48
2023-02-11T12:38:33.015Z,7.46
2023-02-11T12:41:40.617Z,7.46
2023-02-11T12:44:19.131Z,7.51
2023-02-11T12:46:58.085Z,7.56
2023-02-11T12:49:42.002Z,7.59
2023-02-11T12:52:33.360Z,7.61
2023-02-11T12:55:09.035Z,7.63
2023-02-11T12:57:42.087Z,7.62
2023-02-11T13:00:18.609Z,7.63
2023-02-11T13:02:55.745Z,7.64
2023-02-11T13:05:30.961Z,7.66
2023-02-11T13:08:07.073Z,7.67
2023-02-11T13:10:39.592Z,7.70
2023-02-11T13:13:19.469Z,7.74
2023-02-11T13:15:53.293Z,7.77
2023-02-11T13:18:37.120Z,7.77
2023-02-11T13:21:36.180Z,7.79
2023-02-11T13:24:16.948Z,7.80
2023-02-11T13:26:55.334Z,7.82
2023-02-11T13:29:32.951Z,7.85
2023-02-11T13:32:09.902Z,7.88
2023-02-11T13:35:00.027Z,7.87
2023-02-11T13:37:37.624Z,7.91
2023-02-11T13:40:23.447Z,7.89
2023-02-11T13:42:55.683Z,7.94
2023-02-11T13:45:32.637Z,7.96
2023-02-11T13:48:03.993Z,7.94
2023-02-11T13:50:39.321Z,7.98
2023-02-11T13:53:10.008Z,8.00
2023-02-11T13:55:43.747Z,8.02
2023-02-11T13:58:37.357Z,8.01
2023-02-11T14:01:07.533Z,8.00
2023-02-11T14:03:57.299Z,7.99
2023-02-11T14:06:45.907Z,8.01
2023-02-11T14:09:57.323Z,8.02
2023-02-11T14:12:36.236Z,8.05
2023-02-11T14:15:26.437Z,8.01
2023-02-11T14:17:55.848Z,8.06
2023-02-11T14:20:45.428Z,8.01
2023-02-11T14:23:31.098Z,8.00
2023-02-11T14:26:14.765Z,7.98
2023-02-11T14:28:46.876Z,7.96
2023-02-11T14:31:23.696Z,7.99
2023-02-11T14:34:17.197Z,8.03
2023-02-11T14:37:24.379Z,7.99
2023-02-11T14:40:06.958Z,8.00
2023-02-11T14:42:43.250Z,8.01
2023-02-11T14:45:23.014Z,8.01
2023-02-11T14:47:59.746Z,8.01
2023-02-11T14:50:35.570Z,8.06
2023-02-11T14:53:06.328Z,8.03
2023-02-11T14:55:41.253Z,8.05
2023-02-11T14:58:17.004Z,8.05
2023-02-11T15:00:55.039Z,8.09
2023-02-11T15:03:37.789Z,8.04
2023-02-11T15:06:22.429Z,8.05
2023-02-11T15:08:54.686Z,8.03
2023-02-11T15:11:26.455Z,8.01
2023-02-11T15:13:59.775Z,7.96
2023-02-11T15:16:31.132Z,7.93
2023-02-11T15:19:06.166Z,7.95
2023-02-11T15:21:38.053Z,7.89
2023-02-11T15:24:24.167Z,7.89
2023-02-11T15:27:01.790Z,7.92
2023-02-11T15:29:40.426Z,7.92
2023-02-11T15:32:17.176Z,7.92
2023-02-11T15:34:49.000Z,7.89
2023-02-11T15:37:23.104Z,7.95
2023-02-11T15:39:53.943Z,7.87
2023-02-11T15:42:26.565Z,7.83
2023-02-11T15:45:24.423Z,7.79
2023-02-11T15:47:58.064Z,7.83
2023-02-11T15:50:30.994Z,7.86
2023-02-11T15:53:03.953Z,7.84
2023-02-11T15:55:34.701Z,7.75
2023-02-11T15:58:04.016Z,7.72
2023-02-11T16:00:38.393Z,7.72
2023-02-11T16:03:09.008Z,7.69
2023-02-11T16:05:40.983Z,7.65
2023-02-11T16:08:24.640Z,7.59
2023-02-11T16:10:58.974Z,7.52
2023-02-11T16:13:30.866Z,7.53
2023-02-11T16:16:05.758Z,7.53
2023-02-11T16:18:40.260Z,7.48
2023-02-11T16:21:17.493Z,7.40
2023-02-11T16:23:52.823Z,7.38
2023-02-11T16:26:28.692Z,7.33
2023-02-11T16:29:14.224Z,7.28
2023-02-11T16:31:46.461Z,7.22
2023-02-11T16:34:19.900Z,7.23
2023-02-11T16:36:50.435Z,7.20
2023-02-11T16:39:22.418Z,7.14
2023-02-11T16:41:53.514Z,7.12
2023-02-11T16:44:23.223Z,7.09
2023-02-11T16:46:53.309Z,7.05
2023-02-11T16:49:27.895Z,7.01
2023-02-11T16:52:01.530Z,7.00
2023-02-11T16:54:31.484Z,6.92
2023-02-11T16:57:01.273Z,6.84
2023-02-11T16:59:30.338Z,6.78
2023-02-11T17:02:00.247Z,6.68
2023-02-11T17:04:33.859Z,6.68
2023-02-11T17:07:03.500Z,6.67
2023-02-11T17:09:32.729Z,6.61
2023-02-11T17:12:02.290Z,6.56
2023-02-11T17:14:31.380Z,6.47
2023-02-11T17:17:01.885Z,6.44
2023-02-11T17:19:34.774Z,6.42
2023-02-11T17:22:05.034Z,6.39
2023-02-11T17:24:34.363Z,6.29
2023-02-11T17:27:03.738Z,6.19
2023-02-11T17:29:32.874Z,6.16
2023-02-11T17:32:02.224Z,6.06
2023-02-11T17:34:34.668Z,5.91
2023-02-11T17:37:09.240Z,5.87
2023-02-11T17:39:39.709Z,5.87
2023-02-11T17:42:11.657Z,5.81
2023-02-11T17:44:41.942Z,5.69
2023-02-11T17:47:11.399Z,5.69
2023-02-11T17:49:42.785Z,5.59
2023-02-11T17:52:12.259Z,5.52
2023-02-11T17:54:41.317Z,5.46
2023-02-11T17:57:14.843Z,5.48
2023-02-11T17:59:45.340Z,5.42
2023-02-11T18:02:14.734Z,5.30
2023-02-11T18:04:45.443Z,5.28
2023-02-11T18:07:14.948Z,5.23
2023-02-11T18:09:46.046Z,5.19
2023-02-11T18:12:17.922Z,5.15
2023-02-11T18:14:47.465Z,5.16
2023-02-11T18:17:16.960Z,5.06
2023-02-11T18:19:47.939Z,5.02
2023-02-11T18:22:18.255Z,4.94
2023-02-11T18:24:52.462Z,4.90
2023-02-11T18:27:22.935Z,4.83
2023-02-11T18:29:52.536Z,4.84
2023-02-11T18:32:22.030Z,4.82
2023-02-11T18:34:52.570Z,4.79
2023-02-11T18:37:22.090Z,4.81
2023-02-11T18:39:51.167Z,4.73
2023-02-11T18:42:20.701Z,4.68
2023-02-11T18:44:49.836Z,4.60
2023-02-11T18:47:19.326Z,4.56
2023-02-11T18:49:48.912Z,4.48
2023-02-11T18:52:19.491Z,4.50
2023-02-11T18:54:51.796Z,4.44
2023-02-11T18:57:21.462Z,4.44
2023-02-11T18:59:50.891Z,4.35
2023-02-11T19:02:20.166Z,4.33
2023-02-11T19:04:49.294Z,4.31
2023-02-11T19:07:21.678Z,4.28
2023-02-11T19:09:51.306Z,4.29
2023-02-11T19:12:20.882Z,4.26
2023-02-11T19:14:50.229Z,4.21
2023-02-11T19:17:19.619Z,4.22
2023-02-11T19:19:49.500Z,4.19
2023-02-11T19:22:20.887Z,4.17
2023-02-11T19:24:52.980Z,4.21
2023-02-11T19:27:22.581Z,4.20
2023-02-11T19:29:52.370Z,4.17
2023-02-11T19:32:21.419Z,4.18
2023-02-11T19:34:51.928Z,4.15
2023-02-11T19:37:24.762Z,4.09
2023-02-11T19:39:55.226Z,4.11
2023-02-11T19:42:27.666Z,4.04
2023-02-11T19:44:57.419Z,4.06
2023-02-11T19:47:28.095Z,4.08
2023-02-11T19:49:57.300Z,4.03
2023-02-11T19:52:30.082Z,4.01
2023-02-11T19:54:59.576Z,3.97
2023-02-11T19:57:30.676Z,4.00
2023-02-11T20:00:01.578Z,4.01
2023-02-11T20:02:41.613Z,3.98
2023-02-11T20:05:11.039Z,3.97
2023-02-11T20:07:41.964Z,3.95
2023-02-11T20:10:12.012Z,3.93
2023-02-11T20:12:44.039Z,3.93
2023-02-11T20:15:13.444Z,3.88
2023-02-11T20:17:43.083Z,3.81
2023-02-11T20:20:14.163Z,3.81
2023-02-11T20:22:47.064Z,3.86
2023-02-11T20:25:19.392Z,3.77
2023-02-11T20:27:49.224Z,3.79
2023-02-11T20:30:19.560Z,3.79
2023-02-11T20:32:52.856Z,3.80
2023-02-11T20:35:22.503Z,3.77
2023-02-11T20:37:53.273Z,3.72
2023-02-11T20:40:23.012Z,3.76
2023-02-11T20:42:52.518Z,3.75
2023-02-11T20:45:21.661Z,3.71
2023-02-11T20:47:51.150Z,3.64
2023-02-11T20:50:21.297Z,3.64
2023-02-11T20:52:52.334Z,3.63
2023-02-11T20:55:22.643Z,3.62
2023-02-11T20:57:55.487Z,3.62
2023-02-11T21:00:24.795Z,3.60
2023-02-11T21:02:57.762Z,3.60
2023-02-11T21:05:27.297Z,3.59
2023-02-11T21:08:00.534Z,3.59
2023-02-11T21:10:32.546Z,3.59
2023-02-11T21:13:03.204Z,3.57
2023-02-11T21:15:32.721Z,3.57
2023-02-11T21:18:02.072Z,3.53
2023-02-11T21:20:31.257Z,3.48
2023-02-11T21:23:02.041Z,3.50
2023-02-11T21:25:31.558Z,3.48
2023-02-11T21:28:01.114Z,3.44
2023-02-11T21:30:30.763Z,3.42
2023-02-11T21:33:00.491Z,3.43
2023-02-11T21:35:29.516Z,3.42
2023-02-11T21:37:58.871Z,3.43
2023-02-11T21:40:29.715Z,3.46
2023-02-11T21:43:01.130Z,3.46
2023-02-11T21:45:32.306Z,3.43
2023-02-11T21:48:02.068Z,3.40
2023-02-11T21:50:32.924Z,3.39
2023-02-11T21:53:05.995Z,3.37
2023-02-11T21:55:38.094Z,3.40
2023-02-11T21:58:08.574Z,3.40
2023-02-11T22:00:37.968Z,3.38
2023-02-11T22:03:07.632Z,3.37
2023-02-11T22:05:40.335Z,3.35
2023-02-11T22:08:09.829Z,3.34
2023-02-11T22:10:40.413Z,3.31
2023-02-11T22:13:09.987Z,3.30
2023-02-11T22:15:39.039Z,3.28
2023-02-11T22:18:08.478Z,3.28
2023-02-11T22:20:37.868Z,3.28
2023-02-11T22:23:07.178Z,3.28
2023-02-11T22:25:39.048Z,3.27
2023-02-11T22:28:08.600Z,3.24
2023-02-11T22:30:38.072Z,3.25
2023-02-11T22:33:07.330Z,3.21
2023-02-11T22:35:36.356Z,3.18
2023-02-11T22:38:05.932Z,3.17
2023-02-11T22:40:34.980Z,3.15
2023-02-11T22:43:06.160Z,3.13
2023-02-11T22:45:35.776Z,3.11
2023-02-11T22:48:05.382Z,3.10
2023-02-11T22:50:36.603Z,3.10
2023-02-11T22:53:06.008Z,3.12
2023-02-11T22:55:39.359Z,3.10
2023-02-11T22:58:10.216Z,3.13
2023-02-11T23:00:41.916Z,3.12
2023-02-11T23:03:13.466Z,3.10
2023-02-11T23:05:43.730Z,3.13
2023-02-11T23:08:13.839Z,3.15
2023-02-11T23:10:43.045Z,3.15
2023-02-11T23:13:13.771Z,3.15
2023-02-11T23:15:44.427Z,3.15
2023-02-11T23:18:14.901Z,3.12
2023-02-11T23:20:45.866Z,3.13
2023-02-11T23:23:15.749Z,3.14
2023-02-11T23:25:45.591Z,3.14
2023-02-11T23:28:16.624Z,3.13
2023-02-11T23:30:45.805Z,3.10
2023-02-11T23:33:15.139Z,3.09
2023-02-11T23:35:44.240Z,3.11
2023-02-11T23:38:13.578Z,3.12
2023-02-11T23:40:43.134Z,3.11
2023-02-11T23:43:12.466Z,3.10
2023-02-11T23:45:43.101Z,3.11
2023-02-11T23:48:12.600Z,3.11
2023-02-11T23:50:44.096Z,3.11
2023-02-11T23:53:13.730Z,3.11
2023-02-11T23:55:43.379Z,3.16
2023-02-11T23:58:14.697Z,3.09
